createdAt,value
2018-08-13T00:02:23.632Z,3.80
2018-08-13T00:04:52.012Z,4.37
2018-08-13T00:07:20.326Z,4.37
2018-08-13T00:09:48.722Z,3.23
2018-08-13T00:12:17.021Z,4.20
2018-08-13T00:14:45.272Z,3.97
2018-08-13T00:17:13.543Z,3.60
2018-08-13T00:19:41.802Z,4.33
2018-08-13T00:22:10.092Z,3.67
2018-08-13T00:24:38.384Z,4.20
2018-08-13T00:27:06.603Z,4.10
2018-08-13T00:29:34.940Z,4.23
2018-08-13T00:32:03.216Z,4.70
2018-08-13T00:34:31.657Z,4.03
2018-08-13T00:36:59.970Z,4.10
2018-08-13T00:39:28.271Z,4.00
2018-08-13T00:41:56.619Z,4.00
2018-08-13T00:44:24.979Z,4.30
2018-08-13T00:46:53.352Z,4.00
2018-08-13T00:49:21.660Z,4.23
2018-08-13T00:51:56.227Z,3.77
2018-08-13T00:54:24.559Z,3.97
2018-08-13T00:56:52.794Z,4.00
2018-08-13T00:59:21.159Z,4.53
2018-08-13T01:01:49.480Z,4.40
2018-08-13T01:04:17.790Z,4.50
2018-08-13T01:06:46.006Z,4.20
2018-08-13T01:09:14.389Z,4.27
2018-08-13T01:11:42.685Z,4.00
2018-08-13T01:14:10.988Z,3.97
2018-08-13T01:16:39.387Z,4.20
2018-08-13T01:19:07.774Z,3.57
2018-08-13T01:21:36.146Z,3.87
2018-08-13T01:24:04.574Z,4.03
2018-08-13T01:26:32.910Z,3.87
2018-08-13T01:29:01.224Z,4.07
2018-08-13T01:31:29.601Z,3.47
2018-08-13T01:33:57.999Z,3.83
2018-08-13T01:36:26.313Z,4.30
2018-08-13T01:38:54.628Z,3.90
2018-08-13T01:41:22.949Z,3.70
2018-08-13T01:43:51.250Z,3.87
2018-08-13T01:46:19.716Z,4.00
2018-08-13T01:48:47.976Z,3.70
2018-08-13T01:51:16.234Z,3.80
2018-08-13T01:53:44.535Z,4.30
2018-08-13T01:56:12.840Z,4.00
2018-08-13T01:58:41.192Z,4.60
2018-08-13T02:01:09.493Z,4.00
2018-08-13T02:03:37.768Z,3.77
2018-08-13T02:06:06.179Z,4.17
2018-08-13T02:08:34.469Z,3.90
2018-08-13T02:11:02.787Z,4.13
2018-08-13T02:13:31.508Z,3.60
2018-08-13T02:15:59.915Z,3.60
2018-08-13T02:18:28.263Z,3.83
2018-08-13T02:20:56.545Z,3.90
2018-08-13T02:23:24.850Z,4.30
2018-08-13T02:25:53.110Z,3.90
2018-08-13T02:28:21.369Z,3.70
2018-08-13T02:30:49.779Z,4.07
2018-08-13T02:33:18.632Z,4.17
2018-08-13T02:35:46.912Z,4.40
2018-08-13T02:38:15.555Z,4.23
2018-08-13T02:40:43.862Z,3.80
2018-08-13T02:43:12.640Z,4.20
2018-08-13T02:45:41.032Z,4.20
2018-08-13T02:48:09.313Z,3.97
2018-08-13T02:50:37.567Z,4.20
2018-08-13T02:53:06.336Z,3.97
2018-08-13T02:55:34.619Z,3.60
2018-08-13T02:58:03.051Z,3.77
2018-08-13T03:00:31.351Z,3.83
2018-08-13T03:02:59.681Z,3.80
2018-08-13T03:05:28.007Z,4.10
2018-08-13T03:07:56.341Z,3.83
2018-08-13T03:10:24.608Z,3.97
2018-08-13T03:12:52.976Z,4.27
2018-08-13T03:15:21.209Z,4.00
2018-08-13T03:17:49.493Z,3.83
2018-08-13T03:20:17.825Z,4.30
2018-08-13T03:22:46.084Z,3.87
2018-08-13T03:25:14.367Z,4.50
2018-08-13T03:27:42.729Z,4.20
2018-08-13T03:30:12.278Z,4.10
2018-08-13T03:32:41.069Z,4.30
2018-08-13T03:35:10.032Z,4.00
2018-08-13T03:37:38.327Z,3.87
2018-08-13T03:40:08.573Z,4.07
2018-08-13T03:42:37.315Z,4.03
2018-08-13T03:45:07.057Z,4.27
2018-08-13T03:47:35.376Z,4.50
2018-08-13T03:50:03.708Z,3.80
2018-08-13T03:52:31.956Z,4.23
2018-08-13T03:55:00.422Z,4.20
2018-08-13T03:57:28.720Z,4.30
2018-08-13T03:59:57.041Z,4.27
2018-08-13T04:02:25.373Z,4.70
2018-08-13T04:04:53.680Z,4.37
2018-08-13T04:07:21.988Z,4.13
2018-08-13T04:09:50.340Z,4.00
2018-08-13T04:12:18.721Z,4.30
2018-08-13T04:14:47.045Z,4.03
2018-08-13T04:17:15.323Z,4.57
2018-08-13T04:19:43.660Z,4.33
2018-08-13T04:22:12.059Z,4.40
2018-08-13T04:24:40.409Z,4.70
2018-08-13T04:27:08.728Z,4.57
2018-08-13T04:29:37.014Z,4.60
2018-08-13T04:32:05.306Z,4.93
2018-08-13T04:34:33.615Z,4.60
2018-08-13T04:37:02.100Z,4.77
2018-08-13T04:39:30.436Z,4.70
2018-08-13T04:41:58.702Z,5.23
2018-08-13T04:44:27.066Z,4.60
2018-08-13T04:46:55.404Z,4.90
2018-08-13T04:49:23.701Z,5.30
2018-08-13T04:51:51.979Z,5.80
2018-08-13T04:54:20.261Z,6.17
2018-08-13T04:56:48.580Z,6.10
2018-08-13T04:59:16.889Z,6.00
2018-08-13T05:01:45.130Z,6.03
2018-08-13T05:04:13.546Z,6.60
2018-08-13T05:06:41.842Z,7.10
2018-08-13T05:09:10.982Z,5.90
2018-08-13T05:11:39.852Z,6.60
2018-08-13T05:14:08.278Z,6.80
2018-08-13T05:16:36.620Z,6.53
2018-08-13T05:19:05.087Z,7.00
2018-08-13T05:21:33.428Z,6.40
2018-08-13T05:24:01.741Z,7.20
2018-08-13T05:26:30.101Z,7.27
2018-08-13T05:28:58.420Z,7.40
2018-08-13T05:31:26.748Z,7.43
2018-08-13T05:33:55.127Z,8.03
2018-08-13T05:36:23.337Z,8.20
2018-08-13T05:38:51.612Z,7.50
2018-08-13T05:41:20.039Z,7.83
2018-08-13T05:43:48.361Z,7.60
2018-08-13T05:46:16.694Z,7.50
2018-08-13T05:48:44.960Z,7.20
2018-08-13T05:51:13.298Z,7.00
2018-08-13T05:53:41.599Z,7.50
2018-08-13T05:56:09.987Z,7.90
2018-08-13T05:58:38.311Z,7.30
2018-08-13T06:01:07.253Z,7.13
2018-08-13T06:03:35.604Z,6.97
2018-08-13T06:06:04.025Z,7.90
2018-08-13T06:08:32.405Z,7.13
2018-08-13T06:11:00.755Z,7.37
2018-08-13T06:13:29.059Z,6.77
2018-08-13T06:15:57.343Z,7.50
2018-08-13T06:18:25.735Z,6.17
2018-08-13T06:20:54.043Z,6.53
2018-08-13T06:23:22.356Z,7.00
2018-08-13T06:25:50.773Z,7.33
2018-08-13T06:28:19.135Z,6.40
2018-08-13T06:30:47.387Z,6.97
2018-08-13T06:33:15.750Z,6.70
2018-08-13T06:35:44.047Z,6.47
2018-08-13T06:38:12.375Z,6.07
2018-08-13T06:40:40.707Z,5.80
2018-08-13T06:43:08.994Z,5.70
2018-08-13T06:45:37.298Z,5.73
2018-08-13T06:48:06.133Z,6.07
2018-08-13T06:50:34.399Z,5.37
2018-08-13T06:53:02.769Z,6.37
2018-08-13T06:55:31.166Z,6.00
2018-08-13T06:57:59.541Z,5.90
2018-08-13T07:00:27.922Z,6.30
2018-08-13T07:02:56.204Z,6.43
2018-08-13T07:05:24.586Z,6.30
2018-08-13T07:07:52.968Z,5.50
2018-08-13T07:10:21.415Z,6.53
2018-08-13T07:12:49.802Z,6.57
2018-08-13T07:15:18.092Z,6.03
2018-08-13T07:17:46.585Z,6.27
2018-08-13T07:20:17.081Z,6.03
2018-08-13T07:22:45.858Z,6.20
2018-08-13T07:25:14.253Z,6.53
2018-08-13T07:27:42.851Z,6.60
2018-08-13T07:30:12.592Z,6.57
2018-08-13T07:32:41.325Z,6.00
2018-08-13T07:35:09.793Z,6.37
2018-08-13T07:37:38.047Z,5.93
2018-08-13T07:40:08.470Z,6.10
2018-08-13T07:42:36.801Z,6.43
2018-08-13T07:45:06.328Z,5.87
2018-08-13T07:47:34.779Z,5.90
2018-08-13T07:50:03.223Z,5.10
2018-08-13T07:52:31.598Z,4.80
2018-08-13T07:54:59.928Z,4.60
2018-08-13T07:57:28.255Z,4.90
2018-08-13T07:59:56.758Z,4.37
2018-08-13T08:02:25.145Z,5.33
2018-08-13T08:04:53.525Z,5.40
2018-08-13T08:07:21.998Z,4.83
2018-08-13T08:09:50.341Z,5.37
2018-08-13T08:12:18.580Z,5.27
2018-08-13T08:14:47.071Z,5.03
2018-08-13T08:17:15.265Z,5.03
2018-08-13T08:19:43.616Z,5.10
2018-08-13T08:22:11.942Z,5.00
2018-08-13T08:24:40.381Z,5.13
2018-08-13T08:27:09.272Z,5.30
2018-08-13T08:29:37.561Z,5.40
2018-08-13T08:32:05.900Z,5.10
2018-08-13T08:34:34.265Z,4.70
2018-08-13T08:37:02.554Z,5.23
2018-08-13T08:39:30.917Z,5.07
2018-08-13T08:41:59.226Z,5.13
2018-08-13T08:44:27.530Z,5.20
2018-08-13T08:46:55.811Z,5.27
2018-08-13T08:49:24.134Z,5.00
2018-08-13T08:51:52.461Z,4.47
2018-08-13T08:54:20.737Z,5.13
2018-08-13T08:56:49.138Z,4.73
2018-08-13T08:59:17.448Z,5.20
2018-08-13T09:01:45.752Z,4.40
2018-08-13T09:04:14.144Z,4.60
2018-08-13T09:06:42.508Z,4.13
2018-08-13T09:09:12.602Z,5.70
2018-08-13T09:11:41.340Z,5.03
2018-08-13T09:14:09.965Z,5.03
2018-08-13T09:16:40.027Z,4.60
2018-08-13T09:19:19.717Z,5.50
2018-08-13T09:21:51.276Z,5.13
2018-08-13T09:24:30.916Z,5.50
2018-08-13T09:27:10.574Z,5.50
2018-08-13T09:29:50.208Z,5.67
2018-08-13T09:32:33.885Z,5.50
2018-08-13T09:35:15.774Z,5.67
2018-08-13T09:37:44.038Z,5.73
2018-08-13T09:40:12.325Z,5.80
2018-08-13T09:42:40.603Z,6.17
2018-08-13T09:45:09.000Z,5.67
2018-08-13T09:47:38.208Z,5.93
2018-08-13T09:50:10.457Z,5.30
2018-08-13T09:52:38.944Z,6.13
2018-08-13T09:55:07.503Z,6.47
2018-08-13T09:57:35.877Z,6.30
2018-08-13T10:00:05.803Z,6.00
2018-08-13T10:02:34.155Z,6.17
2018-08-13T10:05:02.428Z,6.50
2018-08-13T10:07:30.797Z,6.50
2018-08-13T10:09:59.043Z,6.30
2018-08-13T10:12:27.331Z,6.30
2018-08-13T10:14:55.649Z,6.33
2018-08-13T10:17:24.019Z,6.40
2018-08-13T10:19:52.298Z,6.00
2018-08-13T10:22:20.552Z,6.30
2018-08-13T10:24:48.836Z,6.60
2018-08-13T10:27:17.186Z,6.20
2018-08-13T10:29:45.623Z,6.70
2018-08-13T10:32:13.886Z,5.63
2018-08-13T10:34:42.160Z,5.80
2018-08-13T10:37:10.518Z,5.87
2018-08-13T10:39:38.817Z,5.60
2018-08-13T10:42:07.251Z,5.43
2018-08-13T10:44:35.551Z,5.93
2018-08-13T10:47:03.830Z,5.50
2018-08-13T10:49:32.077Z,5.83
2018-08-13T10:52:00.563Z,6.17
2018-08-13T10:54:28.932Z,5.80
2018-08-13T10:56:57.216Z,5.93
2018-08-13T10:59:25.487Z,6.33
2018-08-13T11:01:53.778Z,6.20
2018-08-13T11:04:22.102Z,5.73
2018-08-13T11:06:50.528Z,5.90
2018-08-13T11:09:18.830Z,5.80
2018-08-13T11:11:47.187Z,6.20
2018-08-13T11:14:15.435Z,6.50
2018-08-13T11:16:43.781Z,5.63
2018-08-13T11:19:12.139Z,5.60
2018-08-13T11:21:40.527Z,5.93
2018-08-13T11:24:08.743Z,5.90
2018-08-13T11:26:37.051Z,6.23
2018-08-13T11:29:05.388Z,5.40
2018-08-13T11:31:33.686Z,5.90
2018-08-13T11:34:01.922Z,5.40
2018-08-13T11:36:30.238Z,5.57
2018-08-13T11:38:58.667Z,6.00
2018-08-13T11:41:26.891Z,6.10
2018-08-13T11:43:55.150Z,6.10
2018-08-13T11:46:23.586Z,5.90
2018-08-13T11:48:51.826Z,5.80
2018-08-13T11:51:20.201Z,5.40
2018-08-13T11:53:48.552Z,5.27
2018-08-13T11:56:16.984Z,5.73
2018-08-13T11:58:45.333Z,5.80
2018-08-13T12:01:13.632Z,6.20
2018-08-13T12:03:41.971Z,5.20
2018-08-13T12:06:10.274Z,4.90
2018-08-13T12:08:38.600Z,5.10
2018-08-13T12:11:06.981Z,5.33
2018-08-13T12:13:35.394Z,5.65
2018-08-13T12:16:03.808Z,5.40
2018-08-13T12:18:32.172Z,6.12
2018-08-13T12:21:00.566Z,5.23
2018-08-13T12:23:28.980Z,5.00
2018-08-13T12:25:57.337Z,5.70
2018-08-13T12:28:25.645Z,5.33
2018-08-13T12:30:53.963Z,5.70
2018-08-13T12:33:22.290Z,5.57
2018-08-13T12:35:50.596Z,5.93
2018-08-13T12:38:18.964Z,6.20
2018-08-13T12:40:47.180Z,5.40
2018-08-13T12:43:15.502Z,6.33
2018-08-13T12:45:43.794Z,5.90
2018-08-13T12:48:12.088Z,6.00
2018-08-13T12:50:40.488Z,5.60
2018-08-13T12:53:08.803Z,5.70
2018-08-13T12:55:37.136Z,5.27
2018-08-13T12:58:05.709Z,5.27
2018-08-13T13:00:34.025Z,6.43
2018-08-13T13:03:02.367Z,6.07
2018-08-13T13:05:30.824Z,5.97
2018-08-13T13:07:59.128Z,5.40
2018-08-13T13:10:27.439Z,5.43
2018-08-13T13:12:55.754Z,5.53
2018-08-13T13:15:24.056Z,5.80
2018-08-13T13:17:52.399Z,5.60
2018-08-13T13:20:22.096Z,5.90
2018-08-13T13:22:50.800Z,6.20
2018-08-13T13:25:19.437Z,5.85
2018-08-13T13:27:47.820Z,5.72
2018-08-13T13:30:16.778Z,5.90
2018-08-13T13:32:45.288Z,5.97
2018-08-13T13:35:15.121Z,5.40
2018-08-13T13:37:43.518Z,5.47
2018-08-13T13:40:13.526Z,5.28
2018-08-13T13:42:41.802Z,4.72
2018-08-13T13:45:10.985Z,5.72
2018-08-13T13:47:39.610Z,5.60
2018-08-13T13:50:10.790Z,6.00
2018-08-13T13:52:39.174Z,5.30
2018-08-13T13:55:07.860Z,5.23
2018-08-13T13:57:36.121Z,4.90
2018-08-13T14:00:08.764Z,5.37
2018-08-13T14:02:37.034Z,5.33
2018-08-13T14:05:05.902Z,5.47
2018-08-13T14:07:34.270Z,5.60
2018-08-13T14:10:02.581Z,5.92
2018-08-13T14:12:30.913Z,5.40
2018-08-13T14:14:59.313Z,6.37
2018-08-13T14:17:27.639Z,6.00
2018-08-13T14:19:55.985Z,6.47
2018-08-13T14:22:24.370Z,5.37
2018-08-13T14:24:52.703Z,5.90
2018-08-13T14:27:21.041Z,5.90
2018-08-13T14:29:49.373Z,5.90
2018-08-13T14:32:17.621Z,6.35
2018-08-13T14:34:45.931Z,5.42
2018-08-13T14:37:14.185Z,5.58
2018-08-13T14:39:42.433Z,5.60
2018-08-13T14:42:10.778Z,5.55
2018-08-13T14:44:39.079Z,5.20
2018-08-13T14:47:07.426Z,4.67
2018-08-13T14:49:35.763Z,4.70
2018-08-13T14:52:04.391Z,5.27
2018-08-13T14:54:32.742Z,5.90
2018-08-13T14:57:01.113Z,5.53
2018-08-13T14:59:29.513Z,6.57
2018-08-13T15:01:57.929Z,6.53
2018-08-13T15:04:26.242Z,7.23
2018-08-13T15:06:54.526Z,7.17
2018-08-13T15:09:23.114Z,6.73
2018-08-13T15:11:51.392Z,6.70
2018-08-13T15:14:19.705Z,6.90
2018-08-13T15:16:47.949Z,6.30
2018-08-13T15:19:16.414Z,6.50
2018-08-13T15:21:44.663Z,5.97
2018-08-13T15:24:13.017Z,5.70
2018-08-13T15:26:41.395Z,6.40
2018-08-13T15:29:09.728Z,6.63
2018-08-13T15:31:38.183Z,6.03
2018-08-13T15:34:06.505Z,5.23
2018-08-13T15:36:34.764Z,6.30
2018-08-13T15:39:03.203Z,5.53
2018-08-13T15:41:31.609Z,5.87
2018-08-13T15:44:00.049Z,5.40
2018-08-13T15:46:28.298Z,4.50
2018-08-13T15:48:56.598Z,4.70
2018-08-13T15:51:24.924Z,5.50
2018-08-13T15:53:53.301Z,5.10
2018-08-13T15:56:21.649Z,5.80
2018-08-13T15:58:49.930Z,5.07
2018-08-13T16:01:18.234Z,5.87
2018-08-13T16:03:46.642Z,5.70
2018-08-13T16:06:14.896Z,5.60
2018-08-13T16:08:43.200Z,5.20
2018-08-13T16:11:11.534Z,5.93
2018-08-13T16:13:39.840Z,5.70
2018-08-13T16:16:08.700Z,5.53
2018-08-13T16:18:43.707Z,4.80
2018-08-13T16:21:12.111Z,5.00
2018-08-13T16:23:40.486Z,5.10
2018-08-13T16:26:08.747Z,5.07
2018-08-13T16:28:37.211Z,6.93
2018-08-13T16:31:05.572Z,6.20
2018-08-13T16:33:33.895Z,6.10
2018-08-13T16:36:02.176Z,5.50
2018-08-13T16:38:30.466Z,6.30
2018-08-13T16:40:58.773Z,6.43
2018-08-13T16:43:27.116Z,5.67
2018-08-13T16:45:55.370Z,7.40
2018-08-13T16:48:23.711Z,6.03
2018-08-13T16:50:52.189Z,6.37
2018-08-13T16:53:20.538Z,6.73
2018-08-13T16:55:49.058Z,6.37
2018-08-13T16:58:17.266Z,6.17
2018-08-13T17:00:45.503Z,6.60
2018-08-13T17:03:13.903Z,6.13
2018-08-13T17:05:42.523Z,6.03
2018-08-13T17:08:10.871Z,6.07
2018-08-13T17:10:39.149Z,7.10
2018-08-13T17:13:07.486Z,6.33
2018-08-13T17:15:35.879Z,7.30
2018-08-13T17:18:04.259Z,6.70
2018-08-13T17:20:38.230Z,6.40
2018-08-13T17:23:06.699Z,6.20
2018-08-13T17:25:35.096Z,6.30
2018-08-13T17:28:03.569Z,6.97
2018-08-13T17:30:31.920Z,6.33
2018-08-13T17:33:01.247Z,6.80
2018-08-13T17:35:31.264Z,6.53
2018-08-13T17:38:00.053Z,6.07
2018-08-13T17:40:28.567Z,6.20
2018-08-13T17:42:57.041Z,6.17
2018-08-13T17:45:25.525Z,5.70
2018-08-13T17:47:53.840Z,6.70
2018-08-13T17:50:22.640Z,6.60
2018-08-13T17:52:51.731Z,6.27
2018-08-13T17:55:20.082Z,5.60
2018-08-13T17:57:48.447Z,6.03
2018-08-13T18:00:23.857Z,5.70
2018-08-13T18:02:52.152Z,5.50
2018-08-13T18:05:22.434Z,6.03
2018-08-13T18:07:51.178Z,5.00
2018-08-13T18:10:21.491Z,5.80
2018-08-13T18:12:49.824Z,5.50
2018-08-13T18:15:18.288Z,6.20
2018-08-13T18:17:46.967Z,5.97
2018-08-13T18:20:15.303Z,6.40
2018-08-13T18:22:43.712Z,5.50
2018-08-13T18:25:13.100Z,5.73
2018-08-13T18:27:42.964Z,5.80
2018-08-13T18:30:12.984Z,5.20
2018-08-13T18:32:41.290Z,5.33
2018-08-13T18:35:09.805Z,5.67
2018-08-13T18:37:38.164Z,5.60
2018-08-13T18:40:12.298Z,5.47
2018-08-13T18:42:40.722Z,5.27
2018-08-13T18:45:09.842Z,5.30
2018-08-13T18:47:39.002Z,6.73
2018-08-13T18:50:10.881Z,6.43
2018-08-13T18:52:39.882Z,5.70
2018-08-13T18:55:09.279Z,6.07
2018-08-13T18:57:37.980Z,6.53
2018-08-13T19:00:08.869Z,6.30
2018-08-13T19:02:37.775Z,6.37
2018-08-13T19:05:06.809Z,6.23
2018-08-13T19:07:35.765Z,6.57
2018-08-13T19:10:05.322Z,6.23
2018-08-13T19:12:34.132Z,6.50
2018-08-13T19:15:02.479Z,6.10
2018-08-13T19:17:31.076Z,6.20
2018-08-13T19:19:59.646Z,6.27
2018-08-13T19:22:27.932Z,6.90
2018-08-13T19:24:56.521Z,6.20
2018-08-13T19:27:25.116Z,6.13
2018-08-13T19:29:53.865Z,6.30
2018-08-13T19:32:22.549Z,6.90
2018-08-13T19:34:51.416Z,6.73
2018-08-13T19:37:20.021Z,6.03
2018-08-13T19:39:48.825Z,6.33
2018-08-13T19:42:17.447Z,6.83
2018-08-13T19:44:46.287Z,6.27
2018-08-13T19:47:14.884Z,6.43
2018-08-13T19:49:43.704Z,6.70
2018-08-13T19:52:12.060Z,6.80
2018-08-13T19:54:40.828Z,6.40
2018-08-13T19:57:09.453Z,6.00
2018-08-13T19:59:38.258Z,5.57
2018-08-13T20:02:07.225Z,5.43
2018-08-13T20:04:36.014Z,5.83
2018-08-13T20:07:04.880Z,5.70
2018-08-13T20:09:33.573Z,6.20
2018-08-13T20:12:02.303Z,6.07
2018-08-13T20:14:31.109Z,5.83
2018-08-13T20:16:59.734Z,5.53
2018-08-13T20:19:28.348Z,5.77
2018-08-13T20:21:56.894Z,5.47
2018-08-13T20:24:25.581Z,6.30
2018-08-13T20:26:54.337Z,5.60
2018-08-13T20:29:23.033Z,5.80
2018-08-13T20:31:51.588Z,5.90
2018-08-13T20:34:19.935Z,6.17
2018-08-13T20:36:48.602Z,5.70
2018-08-13T20:39:17.154Z,5.50
2018-08-13T20:41:45.880Z,5.40
2018-08-13T20:44:14.183Z,5.87
2018-08-13T20:46:42.784Z,6.00
2018-08-13T20:49:11.480Z,5.80
2018-08-13T20:51:40.029Z,5.43
2018-08-13T20:54:08.636Z,5.87
2018-08-13T20:56:37.312Z,5.13
2018-08-13T20:59:05.983Z,5.30
2018-08-13T21:01:34.823Z,5.93
2018-08-13T21:04:03.643Z,5.53
2018-08-13T21:06:32.264Z,5.90
2018-08-13T21:09:00.886Z,5.80
2018-08-13T21:11:29.541Z,5.60
2018-08-13T21:13:58.375Z,6.10
2018-08-13T21:16:27.002Z,6.20
2018-08-13T21:18:55.689Z,6.00
2018-08-13T21:21:24.426Z,5.53
2018-08-13T21:23:53.091Z,6.27
2018-08-13T21:26:21.750Z,6.30
2018-08-13T21:28:50.413Z,6.33
2018-08-13T21:31:19.224Z,6.50
2018-08-13T21:33:47.915Z,5.97
2018-08-13T21:36:16.460Z,5.90
2018-08-13T21:38:45.226Z,5.90
2018-08-13T21:41:13.939Z,6.30
2018-08-13T21:43:42.728Z,6.30
2018-08-13T21:46:11.354Z,6.33
2018-08-13T21:48:40.041Z,6.43
2018-08-13T21:51:08.743Z,6.53
2018-08-13T21:53:37.492Z,6.30
2018-08-13T21:56:06.392Z,6.90
2018-08-13T21:58:35.111Z,6.10
2018-08-13T22:01:09.016Z,6.60
2018-08-13T22:03:37.757Z,7.00
2018-08-13T22:06:06.032Z,6.60
2018-08-13T22:08:34.635Z,6.20
2018-08-13T22:11:03.098Z,6.57
2018-08-13T22:13:31.716Z,6.70
2018-08-13T22:16:00.418Z,6.23
2018-08-13T22:18:29.065Z,7.00
2018-08-13T22:20:57.750Z,7.13
2018-08-13T22:23:26.399Z,6.43
2018-08-13T22:25:55.067Z,6.83
2018-08-13T22:28:23.641Z,6.90
2018-08-13T22:30:53.111Z,6.70
2018-08-13T22:33:21.786Z,7.27
2018-08-13T22:35:50.385Z,6.80
2018-08-13T22:38:19.107Z,6.60
2018-08-13T22:40:47.778Z,6.77
2018-08-13T22:43:16.361Z,5.80
2018-08-13T22:45:44.991Z,6.70
2018-08-13T22:48:13.628Z,6.80
2018-08-13T22:50:42.290Z,7.30
2018-08-13T22:53:11.008Z,6.70
2018-08-13T22:55:39.715Z,6.57
2018-08-13T22:58:08.393Z,5.90
2018-08-13T23:00:37.056Z,6.40
2018-08-13T23:03:05.939Z,6.53
2018-08-13T23:05:34.719Z,6.83
2018-08-13T23:08:03.369Z,5.97
2018-08-13T23:10:32.054Z,6.17
2018-08-13T23:13:00.825Z,7.30
2018-08-13T23:15:29.497Z,7.10
2018-08-13T23:17:58.287Z,6.93
2018-08-13T23:20:28.806Z,7.30
2018-08-13T23:23:03.558Z,7.20
2018-08-13T23:25:33.911Z,7.20
2018-08-13T23:28:03.635Z,7.60
2018-08-13T23:30:32.308Z,7.83
2018-08-13T23:33:01.531Z,7.70
2018-08-13T23:35:31.094Z,7.90
2018-08-13T23:37:59.696Z,7.30
2018-08-13T23:40:28.704Z,7.97
2018-08-13T23:42:57.405Z,7.87
2018-08-13T23:45:27.510Z,7.73
2018-08-13T23:47:56.231Z,7.27
2018-08-13T23:50:25.833Z,6.97
2018-08-13T23:52:55.745Z,7.77
2018-08-13T23:55:26.822Z,6.97
2018-08-13T23:57:55.913Z,7.23
